createdAt,value
2023-04-30T00:04:49.109Z,3.93
2023-04-30T00:09:54.462Z,4.40
2023-04-30T00:14:59.924Z,4.63
2023-04-30T00:20:05.534Z,3.83
2023-04-30T00:25:14.551Z,4.90
2023-04-30T00:30:19.765Z,4.10
2023-04-30T00:35:27.605Z,4.40
2023-04-30T00:40:34.303Z,4.80
2023-04-30T00:45:41.127Z,3.90
2023-04-30T00:50:46.691Z,4.37
2023-04-30T00:55:52.786Z,4.17
2023-04-30T01:00:59.051Z,4.80
2023-04-30T01:06:04.499Z,4.50
2023-04-30T01:11:40.860Z,4.57
2023-04-30T01:17:09.602Z,3.87
2023-04-30T01:22:30.187Z,4.53
2023-04-30T01:28:05.540Z,4.73
2023-04-30T01:33:10.677Z,4.60
2023-04-30T01:38:32.562Z,4.33
2023-04-30T01:43:40.699Z,3.50
2023-04-30T01:48:48.838Z,4.50
2023-04-30T01:53:56.709Z,4.70
2023-04-30T01:59:02.742Z,3.80
2023-04-30T02:04:13.430Z,4.00
2023-04-30T02:09:19.253Z,4.03
2023-04-30T02:14:26.861Z,4.73
2023-04-30T02:19:32.010Z,4.80
2023-04-30T02:24:37.142Z,3.90
2023-04-30T02:29:42.356Z,3.73
2023-04-30T02:34:47.641Z,3.63
2023-04-30T02:39:54.562Z,4.07
2023-04-30T02:44:59.915Z,3.97
2023-04-30T02:50:05.908Z,3.97
2023-04-30T02:55:13.375Z,4.80
2023-04-30T03:00:21.500Z,3.67
2023-04-30T03:05:26.762Z,4.83
2023-04-30T03:10:35.444Z,3.93
2023-04-30T03:15:40.609Z,3.70
2023-04-30T03:20:45.709Z,3.70
2023-04-30T03:25:51.504Z,2.97
2023-04-30T03:30:56.732Z,3.30
2023-04-30T03:36:01.932Z,3.10
2023-04-30T03:41:07.124Z,3.90
2023-04-30T03:46:12.381Z,2.87
2023-04-30T03:51:21.109Z,4.57
2023-04-30T03:56:27.296Z,3.43
2023-04-30T04:01:32.631Z,2.77
2023-04-30T04:06:37.853Z,2.80
2023-04-30T04:11:42.957Z,2.00
2023-04-30T04:16:49.034Z,3.83
2023-04-30T04:21:54.855Z,2.83
2023-04-30T04:27:01.802Z,3.93
2023-04-30T04:32:09.106Z,4.03
2023-04-30T04:37:18.972Z,3.30
2023-04-30T04:42:25.260Z,3.20
2023-04-30T04:47:30.326Z,3.60
2023-04-30T04:52:38.549Z,3.67
2023-04-30T04:57:44.089Z,3.53
2023-04-30T05:02:49.654Z,3.87
2023-04-30T05:07:56.707Z,3.27
2023-04-30T05:13:01.904Z,3.70
2023-04-30T05:18:07.070Z,3.17
2023-04-30T05:23:13.059Z,3.03
2023-04-30T05:28:18.220Z,2.20
2023-04-30T05:33:23.469Z,3.33
2023-04-30T05:38:29.509Z,2.13
2023-04-30T05:43:34.762Z,2.20
2023-04-30T05:48:43.789Z,2.57
2023-04-30T05:53:53.315Z,2.77
2023-04-30T05:58:59.995Z,2.60
2023-04-30T06:04:26.252Z,2.43
2023-04-30T06:09:37.033Z,2.37
2023-04-30T06:14:44.017Z,2.10
2023-04-30T06:20:03.790Z,1.87
2023-04-30T06:25:23.702Z,1.30
2023-04-30T06:30:45.213Z,2.33
2023-04-30T06:35:57.073Z,2.50
2023-04-30T06:41:04.861Z,1.50
2023-04-30T06:46:19.003Z,2.07
2023-04-30T06:51:38.712Z,1.30
2023-04-30T06:56:49.960Z,1.63
2023-04-30T07:02:00.874Z,1.23
2023-04-30T07:12:35.850Z,1.40
2023-04-30T07:17:45.317Z,1.80
2023-04-30T07:22:59.103Z,1.67
2023-04-30T07:28:12.984Z,1.50
2023-04-30T07:33:25.163Z,1.53
2023-04-30T07:38:41.517Z,1.70
2023-04-30T07:43:48.495Z,1.20
2023-04-30T07:49:06.104Z,1.10
2023-04-30T07:54:18.323Z,1.90
2023-04-30T07:59:24.778Z,1.77
2023-04-30T08:04:30.105Z,1.00
2023-04-30T08:09:35.466Z,0.73
2023-04-30T08:14:40.671Z,0.87
2023-04-30T08:19:45.935Z,1.00
2023-04-30T08:24:51.604Z,2.97
2023-04-30T08:29:56.959Z,0.80
2023-04-30T08:35:02.649Z,6.30
2023-04-30T08:40:09.938Z,1.83
2023-04-30T08:45:16.425Z,1.70
2023-04-30T08:50:22.172Z,3.03
2023-04-30T08:55:29.095Z,1.77
2023-04-30T09:00:37.710Z,1.30
2023-04-30T09:05:42.936Z,0.93
2023-04-30T09:10:48.155Z,0.87
2023-04-30T09:15:53.531Z,1.10
2023-04-30T09:21:03.782Z,0.83
2023-04-30T09:26:09.054Z,1.40
2023-04-30T09:31:22.238Z,1.43
2023-04-30T09:36:28.144Z,0.90
2023-04-30T09:41:33.663Z,0.80
2023-04-30T09:46:38.855Z,1.00
2023-04-30T09:51:58.420Z,1.10
2023-04-30T09:57:04.204Z,1.10
2023-04-30T10:02:10.868Z,0.80
2023-04-30T10:07:22.458Z,2.83
2023-04-30T10:12:33.934Z,1.17
2023-04-30T10:17:44.488Z,1.00
2023-04-30T10:22:50.515Z,1.50
2023-04-30T10:27:55.986Z,1.00
2023-04-30T10:33:21.077Z,0.80
2023-04-30T10:38:32.395Z,1.00
2023-04-30T10:43:38.640Z,0.70
2023-04-30T10:48:45.407Z,1.20
2023-04-30T10:53:56.176Z,1.00
2023-04-30T10:59:05.509Z,1.30
2023-04-30T11:04:12.699Z,0.97
2023-04-30T11:09:18.902Z,1.03
2023-04-30T11:14:24.982Z,0.90
2023-04-30T11:19:30.265Z,1.00
2023-04-30T11:25:04.612Z,1.03
2023-04-30T11:30:15.563Z,1.10
2023-04-30T11:35:21.030Z,1.20
2023-04-30T11:40:27.154Z,1.33
2023-04-30T11:45:32.409Z,1.37
2023-04-30T11:50:41.037Z,1.10
2023-04-30T11:55:46.501Z,0.80
2023-04-30T12:00:53.279Z,0.90
2023-04-30T12:05:59.153Z,1.20
2023-04-30T12:11:06.282Z,1.00
2023-04-30T12:16:11.629Z,1.10
2023-04-30T12:21:17.730Z,1.10
2023-04-30T12:26:23.403Z,0.97
2023-04-30T12:31:28.595Z,1.33
2023-04-30T12:36:37.650Z,1.20
2023-04-30T12:41:45.943Z,1.60
2023-04-30T12:46:54.247Z,0.80
2023-04-30T12:52:07.171Z,1.37
2023-04-30T12:57:13.946Z,1.30
2023-04-30T13:02:19.737Z,0.90
2023-04-30T13:07:25.588Z,1.50
2023-04-30T13:12:30.755Z,0.90
2023-04-30T13:17:36.862Z,1.77
2023-04-30T13:22:42.244Z,1.10
2023-04-30T13:27:47.465Z,1.47
2023-04-30T13:32:52.904Z,1.20
2023-04-30T13:38:00.419Z,1.20
2023-04-30T13:43:05.617Z,1.77
2023-04-30T13:48:11.228Z,1.37
2023-04-30T13:53:17.434Z,1.10
2023-04-30T13:58:22.688Z,1.00
2023-04-30T14:03:28.154Z,1.00
2023-04-30T14:08:34.256Z,1.87
2023-04-30T14:13:39.836Z,1.50
2023-04-30T14:18:45.142Z,1.07
2023-04-30T14:23:52.038Z,0.83
2023-04-30T14:28:58.335Z,1.30
2023-04-30T14:34:03.574Z,1.27
2023-04-30T14:39:09.195Z,1.23
2023-04-30T14:44:14.386Z,1.77
2023-04-30T14:49:19.756Z,0.97
2023-04-30T14:54:24.992Z,0.90
2023-04-30T14:59:30.334Z,1.50
2023-04-30T15:04:35.621Z,1.20
2023-04-30T15:09:41.236Z,1.17
2023-04-30T15:14:47.199Z,1.20
2023-04-30T15:19:53.817Z,1.77
2023-04-30T15:24:59.292Z,2.47
2023-04-30T15:30:04.923Z,2.10
2023-04-30T15:35:10.537Z,1.33
2023-04-30T15:40:16.260Z,1.57
2023-04-30T15:45:21.580Z,1.10
2023-04-30T15:50:27.555Z,0.73
2023-04-30T15:55:32.793Z,0.97
2023-04-30T16:00:37.912Z,0.97
2023-04-30T16:05:44.010Z,1.50
2023-04-30T16:10:50.052Z,1.10
2023-04-30T16:15:55.415Z,0.90
2023-04-30T16:21:01.675Z,2.23
2023-04-30T16:26:06.933Z,3.53
2023-04-30T16:31:14.046Z,1.70
2023-04-30T16:36:19.266Z,2.10
2023-04-30T16:41:24.335Z,1.67
2023-04-30T16:46:29.885Z,42.83
2023-04-30T16:51:35.057Z,3.03
2023-04-30T16:56:40.589Z,1.20
2023-04-30T17:01:46.626Z,1.13
2023-04-30T17:06:52.096Z,1.50
2023-04-30T17:11:57.435Z,2.80
2023-04-30T17:17:03.297Z,29.13
2023-04-30T17:22:08.445Z,11.63
2023-04-30T17:27:13.618Z,8.97
2023-04-30T17:32:19.045Z,6.23
2023-04-30T17:37:24.255Z,4.47
2023-04-30T17:42:30.788Z,9.97
2023-04-30T17:47:35.988Z,8.73
2023-04-30T17:52:41.387Z,5.67
2023-04-30T17:57:47.009Z,2.13
2023-04-30T18:02:52.331Z,7.23
2023-04-30T18:07:57.648Z,8.53
2023-04-30T18:13:03.601Z,13.60
2023-04-30T18:18:08.761Z,11.43
2023-04-30T18:23:14.205Z,10.97
2023-04-30T18:28:19.507Z,9.87
2023-04-30T18:33:24.645Z,7.67
2023-04-30T18:38:29.801Z,10.40
2023-04-30T18:43:36.724Z,15.67
2023-04-30T18:48:41.953Z,23.23
2023-04-30T18:53:47.901Z,20.20
2023-04-30T18:58:53.134Z,14.70
2023-04-30T19:03:58.283Z,22.77
2023-04-30T19:09:03.959Z,20.10
2023-04-30T19:14:10.054Z,12.60
2023-04-30T19:19:15.901Z,21.47
2023-04-30T19:24:21.783Z,23.90
2023-04-30T19:29:29.581Z,24.53
2023-04-30T19:34:34.843Z,23.80
2023-04-30T19:39:40.418Z,18.50
2023-04-30T19:44:45.627Z,11.47
2023-04-30T19:49:51.836Z,6.97
2023-04-30T19:54:56.910Z,4.40
2023-04-30T20:00:04.564Z,6.80
2023-04-30T20:05:10.574Z,6.40
2023-04-30T20:10:15.593Z,5.37
2023-04-30T20:15:22.695Z,5.97
2023-04-30T20:20:30.156Z,5.40
2023-04-30T20:25:35.189Z,3.47
2023-04-30T20:30:42.733Z,4.17
2023-04-30T20:35:48.613Z,2.30
2023-04-30T20:40:53.883Z,2.27
2023-04-30T20:46:01.981Z,3.70
2023-04-30T20:51:08.011Z,3.67
2023-04-30T20:56:13.261Z,3.77
2023-04-30T21:01:18.440Z,4.60
2023-04-30T21:06:23.648Z,4.70
2023-04-30T21:11:28.965Z,3.47
2023-04-30T21:16:34.175Z,2.97
2023-04-30T21:21:40.037Z,2.83
2023-04-30T21:26:45.188Z,2.93
2023-04-30T21:31:50.473Z,2.07
2023-04-30T21:36:55.679Z,2.50
2023-04-30T21:42:01.671Z,3.83
2023-04-30T21:47:08.566Z,3.03
2023-04-30T21:52:13.691Z,3.07
2023-04-30T21:57:19.957Z,3.47
2023-04-30T22:02:25.998Z,4.57
2023-04-30T22:07:32.219Z,4.87
2023-04-30T22:12:37.910Z,4.60
2023-04-30T22:17:43.784Z,4.47
2023-04-30T22:22:49.434Z,3.83
2023-04-30T22:27:54.658Z,2.47
2023-04-30T22:32:59.821Z,2.87
2023-04-30T22:38:05.495Z,2.10
2023-04-30T22:43:11.245Z,3.20
2023-04-30T22:48:16.600Z,4.73
2023-04-30T22:53:22.075Z,4.73
2023-04-30T22:58:27.292Z,5.00
2023-04-30T23:03:32.487Z,4.40
2023-04-30T23:08:37.646Z,2.63
2023-04-30T23:13:42.947Z,2.60
2023-04-30T23:18:49.338Z,3.23
2023-04-30T23:23:54.944Z,2.50
2023-04-30T23:29:00.133Z,3.10
2023-04-30T23:34:05.244Z,2.30
2023-04-30T23:39:10.397Z,2.17
2023-04-30T23:44:16.096Z,3.13
2023-04-30T23:49:22.808Z,4.80
2023-04-30T23:54:28.900Z,4.83
2023-04-30T23:59:34.071Z,3.80
